sensor_id;sensor_type;location;lat;lon;timestamp;P1;durP1;ratioP1;P2;durP2;ratioP2
46158;SDS011;31888;44.512;26.104;2022-07-23T00:01:23;17.85;;;6.50;;
46158;SDS011;31888;44.512;26.104;2022-07-23T00:03:29;12.80;;;6.53;;
46158;SDS011;31888;44.512;26.104;2022-07-23T00:05:35;19.15;;;6.78;;
46158;SDS011;31888;44.512;26.104;2022-07-23T00:07:40;18.80;;;6.95;;
46158;SDS011;31888;44.512;26.104;2022-07-23T00:09:44;18.23;;;6.40;;
46158;SDS011;31888;44.512;26.104;2022-07-23T00:11:48;18.77;;;6.88;;
46158;SDS011;31888;44.512;26.104;2022-07-23T00:13:55;19.08;;;6.00;;
46158;SDS011;31888;44.512;26.104;2022-07-23T00:16:00;14.52;;;6.00;;
46158;SDS011;31888;44.512;26.104;2022-07-23T00:18:05;15.63;;;6.00;;
46158;SDS011;31888;44.512;26.104;2022-07-23T00:20:12;15.13;;;6.30;;
46158;SDS011;31888;44.512;26.104;2022-07-23T00:22:21;10.82;;;5.85;;
46158;SDS011;31888;44.512;26.104;2022-07-23T00:24:25;13.90;;;6.38;;
46158;SDS011;31888;44.512;26.104;2022-07-23T00:26:30;11.65;;;6.15;;
46158;SDS011;31888;44.512;26.104;2022-07-23T00:28:39;18.75;;;6.07;;
46158;SDS011;31888;44.512;26.104;2022-07-23T00:30:43;14.88;;;5.93;;
46158;SDS011;31888;44.512;26.104;2022-07-23T00:32:49;9.77;;;5.60;;
46158;SDS011;31888;44.512;26.104;2022-07-23T00:34:58;14.88;;;6.07;;
46158;SDS011;31888;44.512;26.104;2022-07-23T00:37:04;13.82;;;6.18;;
46158;SDS011;31888;44.512;26.104;2022-07-23T00:39:11;11.00;;;5.65;;
46158;SDS011;31888;44.512;26.104;2022-07-23T00:41:15;9.70;;;5.50;;
46158;SDS011;31888;44.512;26.104;2022-07-23T00:43:19;12.13;;;6.07;;
46158;SDS011;31888;44.512;26.104;2022-07-23T00:45:25;12.45;;;6.65;;
46158;SDS011;31888;44.512;26.104;2022-07-23T00:47:31;14.48;;;5.63;;
46158;SDS011;31888;44.512;26.104;2022-07-23T00:49:36;16.33;;;5.63;;
46158;SDS011;31888;44.512;26.104;2022-07-23T00:51:41;12.00;;;5.57;;
46158;SDS011;31888;44.512;26.104;2022-07-23T00:53:45;15.68;;;5.50;;
46158;SDS011;31888;44.512;26.104;2022-07-23T00:55:52;12.68;;;5.68;;
46158;SDS011;31888;44.512;26.104;2022-07-23T00:57:57;17.88;;;6.25;;
46158;SDS011;31888;44.512;26.104;2022-07-23T01:00:03;11.95;;;5.68;;
46158;SDS011;31888;44.512;26.104;2022-07-23T01:02:09;13.20;;;6.03;;
46158;SDS011;31888;44.512;26.104;2022-07-23T01:04:13;9.98;;;5.47;;
46158;SDS011;31888;44.512;26.104;2022-07-23T01:06:18;17.00;;;5.70;;
46158;SDS011;31888;44.512;26.104;2022-07-23T01:08:22;22.20;;;6.97;;
46158;SDS011;31888;44.512;26.104;2022-07-23T01:10:27;13.77;;;5.45;;
46158;SDS011;31888;44.512;26.104;2022-07-23T01:12:36;17.45;;;5.95;;
46158;SDS011;31888;44.512;26.104;2022-07-23T01:14:41;13.20;;;5.63;;
46158;SDS011;31888;44.512;26.104;2022-07-23T01:16:46;12.48;;;5.78;;
46158;SDS011;31888;44.512;26.104;2022-07-23T01:18:52;9.95;;;5.65;;
46158;SDS011;31888;44.512;26.104;2022-07-23T01:20:56;16.50;;;5.75;;
46158;SDS011;31888;44.512;26.104;2022-07-23T01:23:03;12.32;;;5.65;;
46158;SDS011;31888;44.512;26.104;2022-07-23T01:25:09;12.02;;;5.30;;
46158;SDS011;31888;44.512;26.104;2022-07-23T01:27:16;11.10;;;6.35;;
46158;SDS011;31888;44.512;26.104;2022-07-23T01:29:24;16.65;;;6.00;;
46158;SDS011;31888;44.512;26.104;2022-07-23T01:31:30;15.43;;;5.95;;
46158;SDS011;31888;44.512;26.104;2022-07-23T01:33:35;17.35;;;5.53;;
46158;SDS011;31888;44.512;26.104;2022-07-23T01:35:40;10.00;;;5.07;;
46158;SDS011;31888;44.512;26.104;2022-07-23T01:37:47;15.90;;;5.70;;
46158;SDS011;31888;44.512;26.104;2022-07-23T01:39:54;16.00;;;5.63;;
46158;SDS011;31888;44.512;26.104;2022-07-23T01:42:00;14.55;;;6.55;;
46158;SDS011;31888;44.512;26.104;2022-07-23T01:44:06;11.40;;;5.43;;
46158;SDS011;31888;44.512;26.104;2022-07-23T01:46:14;15.98;;;5.90;;
46158;SDS011;31888;44.512;26.104;2022-07-23T01:48:22;13.48;;;6.53;;
46158;SDS011;31888;44.512;26.104;2022-07-23T01:50:45;17.30;;;6.90;;
46158;SDS011;31888;44.512;26.104;2022-07-23T01:53:11;17.92;;;6.22;;
46158;SDS011;31888;44.512;26.104;2022-07-23T01:55:17;11.77;;;6.35;;
46158;SDS011;31888;44.512;26.104;2022-07-23T01:57:24;11.55;;;5.82;;
46158;SDS011;31888;44.512;26.104;2022-07-23T01:59:29;13.90;;;6.53;;
46158;SDS011;31888;44.512;26.104;2022-07-23T02:01:34;14.70;;;5.43;;
46158;SDS011;31888;44.512;26.104;2022-07-23T02:03:40;9.85;;;5.65;;
46158;SDS011;31888;44.512;26.104;2022-07-23T02:05:45;16.00;;;5.88;;
46158;SDS011;31888;44.512;26.104;2022-07-23T02:07:49;12.45;;;5.32;;
46158;SDS011;31888;44.512;26.104;2022-07-23T02:09:53;11.65;;;5.72;;
46158;SDS011;31888;44.512;26.104;2022-07-23T02:11:59;12.27;;;6.25;;
46158;SDS011;31888;44.512;26.104;2022-07-23T02:14:05;18.67;;;6.15;;
46158;SDS011;31888;44.512;26.104;2022-07-23T02:16:10;14.88;;;6.35;;
46158;SDS011;31888;44.512;26.104;2022-07-23T02:18:14;16.60;;;5.85;;
46158;SDS011;31888;44.512;26.104;2022-07-23T02:20:19;16.30;;;6.57;;
46158;SDS011;31888;44.512;26.104;2022-07-23T02:22:23;20.33;;;6.70;;
46158;SDS011;31888;44.512;26.104;2022-07-23T02:24:28;12.75;;;5.95;;
46158;SDS011;31888;44.512;26.104;2022-07-23T02:26:32;19.33;;;6.05;;
46158;SDS011;31888;44.512;26.104;2022-07-23T02:28:41;11.70;;;6.70;;
46158;SDS011;31888;44.512;26.104;2022-07-23T02:30:46;10.45;;;6.47;;
46158;SDS011;31888;44.512;26.104;2022-07-23T02:32:51;13.65;;;5.95;;
46158;SDS011;31888;44.512;26.104;2022-07-23T02:34:55;22.02;;;6.95;;
46158;SDS011;31888;44.512;26.104;2022-07-23T02:37:00;20.60;;;7.50;;
46158;SDS011;31888;44.512;26.104;2022-07-23T02:39:05;13.77;;;6.15;;
46158;SDS011;31888;44.512;26.104;2022-07-23T02:41:11;12.82;;;7.10;;
46158;SDS011;31888;44.512;26.104;2022-07-23T02:43:17;16.23;;;7.03;;
46158;SDS011;31888;44.512;26.104;2022-07-23T02:45:23;14.20;;;6.25;;
46158;SDS011;31888;44.512;26.104;2022-07-23T02:47:29;23.75;;;7.28;;
46158;SDS011;31888;44.512;26.104;2022-07-23T02:49:36;19.38;;;7.30;;
46158;SDS011;31888;44.512;26.104;2022-07-23T02:51:41;16.05;;;6.82;;
46158;SDS011;31888;44.512;26.104;2022-07-23T02:53:48;15.13;;;6.32;;
46158;SDS011;31888;44.512;26.104;2022-07-23T02:55:53;17.02;;;7.32;;
46158;SDS011;31888;44.512;26.104;2022-07-23T02:57:57;13.85;;;5.90;;
46158;SDS011;31888;44.512;26.104;2022-07-23T03:00:03;13.65;;;6.43;;
46158;SDS011;31888;44.512;26.104;2022-07-23T03:02:10;16.77;;;6.10;;
46158;SDS011;31888;44.512;26.104;2022-07-23T03:04:14;18.48;;;6.65;;
46158;SDS011;31888;44.512;26.104;2022-07-23T03:06:19;10.27;;;6.53;;
46158;SDS011;31888;44.512;26.104;2022-07-23T03:08:24;14.15;;;6.80;;
46158;SDS011;31888;44.512;26.104;2022-07-23T03:10:29;10.75;;;6.88;;
46158;SDS011;31888;44.512;26.104;2022-07-23T03:12:34;26.85;;;7.20;;
46158;SDS011;31888;44.512;26.104;2022-07-23T03:14:38;14.68;;;5.95;;
46158;SDS011;31888;44.512;26.104;2022-07-23T03:16:44;11.40;;;6.38;;
46158;SDS011;31888;44.512;26.104;2022-07-23T03:18:51;16.48;;;6.38;;
46158;SDS011;31888;44.512;26.104;2022-07-23T03:20:56;18.70;;;7.55;;
46158;SDS011;31888;44.512;26.104;2022-07-23T03:23:00;14.95;;;7.10;;
46158;SDS011;31888;44.512;26.104;2022-07-23T03:25:06;9.38;;;6.57;;
46158;SDS011;31888;44.512;26.104;2022-07-23T03:27:12;12.43;;;5.47;;
46158;SDS011;31888;44.512;26.104;2022-07-23T03:29:16;16.90;;;6.20;;
46158;SDS011;31888;44.512;26.104;2022-07-23T03:31:21;14.35;;;7.32;;
46158;SDS011;31888;44.512;26.104;2022-07-23T03:33:26;11.95;;;6.20;;
46158;SDS011;31888;44.512;26.104;2022-07-23T03:35:32;12.80;;;6.63;;
46158;SDS011;31888;44.512;26.104;2022-07-23T03:37:51;13.75;;;6.55;;
46158;SDS011;31888;44.512;26.104;2022-07-23T03:39:55;12.25;;;6.70;;
46158;SDS011;31888;44.512;26.104;2022-07-23T03:42:00;12.23;;;7.13;;
46158;SDS011;31888;44.512;26.104;2022-07-23T03:44:04;9.00;;;6.40;;
46158;SDS011;31888;44.512;26.104;2022-07-23T03:46:08;15.23;;;6.55;;
46158;SDS011;31888;44.512;26.104;2022-07-23T03:48:13;19.75;;;7.80;;
46158;SDS011;31888;44.512;26.104;2022-07-23T03:50:19;15.80;;;6.57;;
46158;SDS011;31888;44.512;26.104;2022-07-23T03:52:25;17.88;;;7.07;;
46158;SDS011;31888;44.512;26.104;2022-07-23T03:54:32;13.73;;;6.88;;
46158;SDS011;31888;44.512;26.104;2022-07-23T03:56:37;15.77;;;6.53;;
46158;SDS011;31888;44.512;26.104;2022-07-23T03:58:41;12.68;;;6.75;;
46158;SDS011;31888;44.512;26.104;2022-07-23T04:00:46;27.70;;;7.70;;
46158;SDS011;31888;44.512;26.104;2022-07-23T04:02:50;10.02;;;6.13;;
46158;SDS011;31888;44.512;26.104;2022-07-23T04:04:55;13.60;;;6.32;;
46158;SDS011;31888;44.512;26.104;2022-07-23T04:07:02;14.07;;;6.50;;
46158;SDS011;31888;44.512;26.104;2022-07-23T04:09:08;23.73;;;7.68;;
46158;SDS011;31888;44.512;26.104;2022-07-23T04:11:13;18.02;;;6.75;;
46158;SDS011;31888;44.512;26.104;2022-07-23T04:13:18;13.52;;;6.88;;
46158;SDS011;31888;44.512;26.104;2022-07-23T04:15:23;12.77;;;6.57;;
46158;SDS011;31888;44.512;26.104;2022-07-23T04:17:27;14.30;;;6.90;;
46158;SDS011;31888;44.512;26.104;2022-07-23T04:19:32;15.45;;;6.95;;
46158;SDS011;31888;44.512;26.104;2022-07-23T04:21:40;10.98;;;7.10;;
46158;SDS011;31888;44.512;26.104;2022-07-23T04:23:44;16.63;;;6.70;;
46158;SDS011;31888;44.512;26.104;2022-07-23T04:25:50;15.88;;;6.18;;
46158;SDS011;31888;44.512;26.104;2022-07-23T04:27:55;15.02;;;6.65;;
46158;SDS011;31888;44.512;26.104;2022-07-23T04:29:59;15.05;;;6.40;;
46158;SDS011;31888;44.512;26.104;2022-07-23T04:32:05;11.98;;;6.28;;
46158;SDS011;31888;44.512;26.104;2022-07-23T04:34:10;16.50;;;6.32;;
46158;SDS011;31888;44.512;26.104;2022-07-23T04:36:14;16.38;;;7.18;;
46158;SDS011;31888;44.512;26.104;2022-07-23T04:38:19;16.83;;;6.38;;
46158;SDS011;31888;44.512;26.104;2022-07-23T04:40:26;14.70;;;6.45;;
46158;SDS011;31888;44.512;26.104;2022-07-23T04:42:32;14.20;;;6.38;;
46158;SDS011;31888;44.512;26.104;2022-07-23T04:44:36;13.00;;;5.90;;
46158;SDS011;31888;44.512;26.104;2022-07-23T04:46:41;16.13;;;7.05;;
46158;SDS011;31888;44.512;26.104;2022-07-23T04:48:46;13.75;;;5.88;;
46158;SDS011;31888;44.512;26.104;2022-07-23T04:50:52;12.82;;;6.22;;
46158;SDS011;31888;44.512;26.104;2022-07-23T04:53:02;16.75;;;6.47;;
46158;SDS011;31888;44.512;26.104;2022-07-23T04:55:07;14.80;;;6.53;;
46158;SDS011;31888;44.512;26.104;2022-07-23T04:57:12;12.48;;;5.90;;
46158;SDS011;31888;44.512;26.104;2022-07-23T04:59:18;12.20;;;6.78;;
46158;SDS011;31888;44.512;26.104;2022-07-23T05:01:26;18.35;;;6.90;;
46158;SDS011;31888;44.512;26.104;2022-07-23T05:03:32;18.38;;;6.25;;
46158;SDS011;31888;44.512;26.104;2022-07-23T05:05:36;16.52;;;6.82;;
46158;SDS011;31888;44.512;26.104;2022-07-23T05:09:51;22.23;;;6.80;;
46158;SDS011;31888;44.512;26.104;2022-07-23T05:11:55;12.52;;;6.53;;
46158;SDS011;31888;44.512;26.104;2022-07-23T05:14:00;19.35;;;7.38;;
46158;SDS011;31888;44.512;26.104;2022-07-23T05:16:07;19.92;;;7.40;;
46158;SDS011;31888;44.512;26.104;2022-07-23T05:18:12;15.80;;;6.68;;
46158;SDS011;31888;44.512;26.104;2022-07-23T05:20:17;15.93;;;6.72;;
46158;SDS011;31888;44.512;26.104;2022-07-23T05:22:22;15.95;;;6.50;;
46158;SDS011;31888;44.512;26.104;2022-07-23T05:24:26;23.15;;;7.40;;
46158;SDS011;31888;44.512;26.104;2022-07-23T05:26:32;19.60;;;7.18;;
46158;SDS011;31888;44.512;26.104;2022-07-23T05:28:38;13.00;;;6.80;;
46158;SDS011;31888;44.512;26.104;2022-07-23T05:30:53;16.02;;;6.93;;
46158;SDS011;31888;44.512;26.104;2022-07-23T05:33:01;14.27;;;6.78;;
46158;SDS011;31888;44.512;26.104;2022-07-23T05:35:06;13.45;;;6.80;;
46158;SDS011;31888;44.512;26.104;2022-07-23T05:37:16;10.90;;;6.82;;
46158;SDS011;31888;44.512;26.104;2022-07-23T05:39:20;14.32;;;6.70;;
46158;SDS011;31888;44.512;26.104;2022-07-23T05:41:25;15.10;;;6.80;;
46158;SDS011;31888;44.512;26.104;2022-07-23T05:43:30;20.52;;;6.53;;
46158;SDS011;31888;44.512;26.104;2022-07-23T05:45:39;14.85;;;6.82;;
46158;SDS011;31888;44.512;26.104;2022-07-23T05:47:45;13.98;;;7.00;;
46158;SDS011;31888;44.512;26.104;2022-07-23T05:50:03;16.10;;;6.45;;
46158;SDS011;31888;44.512;26.104;2022-07-23T05:52:17;10.70;;;6.68;;
46158;SDS011;31888;44.512;26.104;2022-07-23T05:54:51;11.25;;;6.70;;
46158;SDS011;31888;44.512;26.104;2022-07-23T05:56:57;15.57;;;7.15;;
46158;SDS011;31888;44.512;26.104;2022-07-23T05:59:01;17.25;;;6.47;;
46158;SDS011;31888;44.512;26.104;2022-07-23T06:01:07;13.68;;;6.50;;
46158;SDS011;31888;44.512;26.104;2022-07-23T06:03:19;13.02;;;6.63;;
46158;SDS011;31888;44.512;26.104;2022-07-23T06:05:26;16.88;;;6.95;;
46158;SDS011;31888;44.512;26.104;2022-07-23T06:07:31;20.10;;;8.40;;
46158;SDS011;31888;44.512;26.104;2022-07-23T06:09:37;10.77;;;7.20;;
46158;SDS011;31888;44.512;26.104;2022-07-23T06:11:43;13.50;;;6.97;;
46158;SDS011;31888;44.512;26.104;2022-07-23T06:13:51;15.70;;;6.85;;
46158;SDS011;31888;44.512;26.104;2022-07-23T06:16:15;13.25;;;6.10;;
46158;SDS011;31888;44.512;26.104;2022-07-23T06:18:20;16.73;;;7.38;;
46158;SDS011;31888;44.512;26.104;2022-07-23T06:20:30;15.98;;;6.72;;
46158;SDS011;31888;44.512;26.104;2022-07-23T06:22:35;20.50;;;7.75;;
46158;SDS011;31888;44.512;26.104;2022-07-23T06:24:42;18.15;;;6.88;;
46158;SDS011;31888;44.512;26.104;2022-07-23T06:26:56;12.25;;;6.93;;
46158;SDS011;31888;44.512;26.104;2022-07-23T06:29:03;18.17;;;7.07;;
46158;SDS011;31888;44.512;26.104;2022-07-23T06:31:11;15.77;;;6.60;;
46158;SDS011;31888;44.512;26.104;2022-07-23T06:33:17;13.35;;;6.53;;
46158;SDS011;31888;44.512;26.104;2022-07-23T06:35:24;10.35;;;7.32;;
46158;SDS011;31888;44.512;26.104;2022-07-23T06:37:34;15.60;;;7.53;;
46158;SDS011;31888;44.512;26.104;2022-07-23T06:39:39;16.83;;;7.50;;
46158;SDS011;31888;44.512;26.104;2022-07-23T06:41:44;19.75;;;7.38;;
46158;SDS011;31888;44.512;26.104;2022-07-23T06:43:53;16.20;;;7.55;;
46158;SDS011;31888;44.512;26.104;2022-07-23T06:45:57;20.17;;;7.53;;
46158;SDS011;31888;44.512;26.104;2022-07-23T06:48:02;17.65;;;7.95;;
46158;SDS011;31888;44.512;26.104;2022-07-23T06:50:06;17.63;;;7.80;;
46158;SDS011;31888;44.512;26.104;2022-07-23T06:52:11;22.20;;;6.93;;
46158;SDS011;31888;44.512;26.104;2022-07-23T06:54:17;18.08;;;6.95;;
46158;SDS011;31888;44.512;26.104;2022-07-23T06:56:23;12.07;;;7.30;;
46158;SDS011;31888;44.512;26.104;2022-07-23T06:58:28;21.08;;;7.47;;
46158;SDS011;31888;44.512;26.104;2022-07-23T07:00:34;17.70;;;7.20;;
46158;SDS011;31888;44.512;26.104;2022-07-23T07:02:38;13.15;;;6.70;;
46158;SDS011;31888;44.512;26.104;2022-07-23T07:04:42;9.50;;;5.88;;
46158;SDS011;31888;44.512;26.104;2022-07-23T07:06:46;14.90;;;6.45;;
46158;SDS011;31888;44.512;26.104;2022-07-23T07:08:51;14.73;;;6.82;;
46158;SDS011;31888;44.512;26.104;2022-07-23T07:10:56;9.60;;;6.90;;
46158;SDS011;31888;44.512;26.104;2022-07-23T07:13:01;17.55;;;7.15;;
46158;SDS011;31888;44.512;26.104;2022-07-23T07:15:06;14.43;;;6.93;;
46158;SDS011;31888;44.512;26.104;2022-07-23T07:17:11;12.82;;;6.57;;
46158;SDS011;31888;44.512;26.104;2022-07-23T07:19:15;12.55;;;7.15;;
46158;SDS011;31888;44.512;26.104;2022-07-23T07:21:20;10.63;;;6.93;;
46158;SDS011;31888;44.512;26.104;2022-07-23T07:23:25;18.05;;;6.07;;
46158;SDS011;31888;44.512;26.104;2022-07-23T07:25:30;16.38;;;7.38;;
46158;SDS011;31888;44.512;26.104;2022-07-23T07:27:36;15.90;;;6.50;;
46158;SDS011;31888;44.512;26.104;2022-07-23T07:29:43;16.48;;;6.57;;
46158;SDS011;31888;44.512;26.104;2022-07-23T07:31:47;16.98;;;6.68;;
46158;SDS011;31888;44.512;26.104;2022-07-23T07:33:51;14.57;;;6.63;;
46158;SDS011;31888;44.512;26.104;2022-07-23T07:35:59;18.98;;;6.97;;
46158;SDS011;31888;44.512;26.104;2022-07-23T07:38:04;14.75;;;6.88;;
46158;SDS011;31888;44.512;26.104;2022-07-23T07:40:08;13.63;;;6.45;;
46158;SDS011;31888;44.512;26.104;2022-07-23T07:42:13;17.08;;;7.38;;
46158;SDS011;31888;44.512;26.104;2022-07-23T07:44:19;12.68;;;6.85;;
46158;SDS011;31888;44.512;26.104;2022-07-23T07:46:23;17.50;;;6.78;;
46158;SDS011;31888;44.512;26.104;2022-07-23T07:48:29;15.18;;;6.80;;
46158;SDS011;31888;44.512;26.104;2022-07-23T07:50:34;15.93;;;6.85;;
46158;SDS011;31888;44.512;26.104;2022-07-23T07:52:38;20.88;;;6.20;;
46158;SDS011;31888;44.512;26.104;2022-07-23T07:54:43;16.02;;;7.03;;
46158;SDS011;31888;44.512;26.104;2022-07-23T07:56:48;17.58;;;7.45;;
46158;SDS011;31888;44.512;26.104;2022-07-23T07:58:53;16.80;;;6.20;;
46158;SDS011;31888;44.512;26.104;2022-07-23T08:00:59;11.77;;;5.75;;
46158;SDS011;31888;44.512;26.104;2022-07-23T08:03:04;19.52;;;6.88;;
46158;SDS011;31888;44.512;26.104;2022-07-23T08:05:09;16.27;;;6.80;;
46158;SDS011;31888;44.512;26.104;2022-07-23T08:07:13;19.33;;;6.20;;
46158;SDS011;31888;44.512;26.104;2022-07-23T08:09:18;15.93;;;6.43;;
46158;SDS011;31888;44.512;26.104;2022-07-23T08:11:22;12.75;;;6.13;;
46158;SDS011;31888;44.512;26.104;2022-07-23T08:13:26;12.13;;;6.13;;
46158;SDS011;31888;44.512;26.104;2022-07-23T08:15:31;12.32;;;6.45;;
46158;SDS011;31888;44.512;26.104;2022-07-23T08:17:37;13.82;;;6.80;;
46158;SDS011;31888;44.512;26.104;2022-07-23T08:19:41;17.65;;;7.07;;
46158;SDS011;31888;44.512;26.104;2022-07-23T08:21:46;17.80;;;6.68;;
46158;SDS011;31888;44.512;26.104;2022-07-23T08:23:50;15.48;;;6.53;;
46158;SDS011;31888;44.512;26.104;2022-07-23T08:25:54;11.57;;;5.68;;
46158;SDS011;31888;44.512;26.104;2022-07-23T08:28:00;17.02;;;5.90;;
46158;SDS011;31888;44.512;26.104;2022-07-23T08:30:05;11.65;;;6.50;;
46158;SDS011;31888;44.512;26.104;2022-07-23T08:32:11;8.43;;;5.57;;
46158;SDS011;31888;44.512;26.104;2022-07-23T08:34:37;16.42;;;6.20;;
46158;SDS011;31888;44.512;26.104;2022-07-23T08:36:45;11.10;;;5.97;;
46158;SDS011;31888;44.512;26.104;2022-07-23T08:38:50;13.80;;;5.55;;
46158;SDS011;31888;44.512;26.104;2022-07-23T08:40:55;11.35;;;5.47;;
46158;SDS011;31888;44.512;26.104;2022-07-23T08:43:01;11.68;;;6.07;;
46158;SDS011;31888;44.512;26.104;2022-07-23T08:45:08;12.68;;;5.88;;
46158;SDS011;31888;44.512;26.104;2022-07-23T08:47:13;10.27;;;5.13;;
46158;SDS011;31888;44.512;26.104;2022-07-23T08:49:19;9.38;;;5.50;;
46158;SDS011;31888;44.512;26.104;2022-07-23T08:51:28;14.20;;;5.72;;
46158;SDS011;31888;44.512;26.104;2022-07-23T08:53:33;10.25;;;5.70;;
46158;SDS011;31888;44.512;26.104;2022-07-23T08:55:40;9.07;;;5.57;;
46158;SDS011;31888;44.512;26.104;2022-07-23T08:57:48;11.85;;;5.85;;
46158;SDS011;31888;44.512;26.104;2022-07-23T08:59:54;14.15;;;6.07;;
46158;SDS011;31888;44.512;26.104;2022-07-23T09:01:59;14.45;;;5.75;;
46158;SDS011;31888;44.512;26.104;2022-07-23T09:04:04;11.68;;;5.63;;
46158;SDS011;31888;44.512;26.104;2022-07-23T09:06:08;9.88;;;5.50;;
46158;SDS011;31888;44.512;26.104;2022-07-23T09:08:14;9.70;;;5.57;;
46158;SDS011;31888;44.512;26.104;2022-07-23T09:10:20;12.88;;;5.43;;
46158;SDS011;31888;44.512;26.104;2022-07-23T09:12:28;13.73;;;5.63;;
46158;SDS011;31888;44.512;26.104;2022-07-23T09:14:36;8.45;;;5.30;;
46158;SDS011;31888;44.512;26.104;2022-07-23T09:16:42;14.88;;;5.63;;
46158;SDS011;31888;44.512;26.104;2022-07-23T09:18:48;8.98;;;5.35;;
46158;SDS011;31888;44.512;26.104;2022-07-23T09:20:56;10.13;;;5.47;;
46158;SDS011;31888;44.512;26.104;2022-07-23T09:23:14;11.00;;;5.72;;
46158;SDS011;31888;44.512;26.104;2022-07-23T09:25:19;7.13;;;4.95;;
46158;SDS011;31888;44.512;26.104;2022-07-23T09:27:24;9.65;;;5.22;;
46158;SDS011;31888;44.512;26.104;2022-07-23T09:29:56;9.90;;;5.25;;
46158;SDS011;31888;44.512;26.104;2022-07-23T09:32:02;9.57;;;5.57;;
46158;SDS011;31888;44.512;26.104;2022-07-23T09:36:18;12.20;;;5.25;;
46158;SDS011;31888;44.512;26.104;2022-07-23T09:38:33;7.80;;;5.57;;
46158;SDS011;31888;44.512;26.104;2022-07-23T09:40:41;9.00;;;5.15;;
46158;SDS011;31888;44.512;26.104;2022-07-23T09:42:54;13.65;;;6.18;;
46158;SDS011;31888;44.512;26.104;2022-07-23T09:44:59;10.38;;;5.63;;
46158;SDS011;31888;44.512;26.104;2022-07-23T09:47:05;12.20;;;6.10;;
46158;SDS011;31888;44.512;26.104;2022-07-23T09:49:12;11.20;;;5.72;;
46158;SDS011;31888;44.512;26.104;2022-07-23T09:51:22;9.77;;;4.88;;
46158;SDS011;31888;44.512;26.104;2022-07-23T09:53:30;14.52;;;5.40;;
46158;SDS011;31888;44.512;26.104;2022-07-23T09:55:36;14.23;;;5.82;;
46158;SDS011;31888;44.512;26.104;2022-07-23T09:57:41;13.82;;;5.72;;
46158;SDS011;31888;44.512;26.104;2022-07-23T09:59:47;6.35;;;4.93;;
46158;SDS011;31888;44.512;26.104;2022-07-23T10:01:53;11.57;;;6.45;;
46158;SDS011;31888;44.512;26.104;2022-07-23T10:03:59;12.15;;;6.10;;
46158;SDS011;31888;44.512;26.104;2022-07-23T10:06:25;13.85;;;5.55;;
46158;SDS011;31888;44.512;26.104;2022-07-23T10:09:09;12.32;;;5.88;;
46158;SDS011;31888;44.512;26.104;2022-07-23T10:11:56;12.57;;;6.15;;
46158;SDS011;31888;44.512;26.104;2022-07-23T10:14:35;13.13;;;5.80;;
46158;SDS011;31888;44.512;26.104;2022-07-23T10:16:43;7.38;;;5.45;;
46158;SDS011;31888;44.512;26.104;2022-07-23T10:18:48;11.15;;;5.60;;
46158;SDS011;31888;44.512;26.104;2022-07-23T10:20:52;12.48;;;6.03;;
46158;SDS011;31888;44.512;26.104;2022-07-23T10:23:00;9.73;;;5.60;;
46158;SDS011;31888;44.512;26.104;2022-07-23T10:25:14;9.50;;;5.72;;
46158;SDS011;31888;44.512;26.104;2022-07-23T10:27:31;9.68;;;5.60;;
46158;SDS011;31888;44.512;26.104;2022-07-23T10:30:00;12.70;;;5.38;;
46158;SDS011;31888;44.512;26.104;2022-07-23T10:32:15;10.32;;;5.55;;
46158;SDS011;31888;44.512;26.104;2022-07-23T10:34:30;16.30;;;6.13;;
46158;SDS011;31888;44.512;26.104;2022-07-23T10:36:46;7.57;;;5.63;;
46158;SDS011;31888;44.512;26.104;2022-07-23T10:38:55;13.07;;;5.95;;
46158;SDS011;31888;44.512;26.104;2022-07-23T10:41:04;13.73;;;5.47;;
46158;SDS011;31888;44.512;26.104;2022-07-23T10:43:12;12.50;;;5.90;;
46158;SDS011;31888;44.512;26.104;2022-07-23T10:45:30;11.88;;;5.38;;
46158;SDS011;31888;44.512;26.104;2022-07-23T10:47:35;14.55;;;5.65;;
46158;SDS011;31888;44.512;26.104;2022-07-23T10:49:48;14.57;;;5.72;;
46158;SDS011;31888;44.512;26.104;2022-07-23T10:54:22;10.43;;;6.40;;
46158;SDS011;31888;44.512;26.104;2022-07-23T10:59:07;9.10;;;5.95;;
46158;SDS011;31888;44.512;26.104;2022-07-23T11:03:37;8.88;;;6.05;;
46158;SDS011;31888;44.512;26.104;2022-07-23T11:05:43;10.98;;;5.93;;
46158;SDS011;31888;44.512;26.104;2022-07-23T11:10:31;11.27;;;6.05;;
46158;SDS011;31888;44.512;26.104;2022-07-23T11:12:38;12.48;;;5.90;;
46158;SDS011;31888;44.512;26.104;2022-07-23T11:17:12;9.88;;;5.93;;
46158;SDS011;31888;44.512;26.104;2022-07-23T11:19:23;9.20;;;5.85;;
46158;SDS011;31888;44.512;26.104;2022-07-23T11:23:58;12.50;;;6.47;;
46158;SDS011;31888;44.512;26.104;2022-07-23T11:26:04;15.93;;;6.93;;
46158;SDS011;31888;44.512;26.104;2022-07-23T11:28:12;15.48;;;6.03;;
46158;SDS011;31888;44.512;26.104;2022-07-23T11:32:41;10.38;;;6.00;;
46158;SDS011;31888;44.512;26.104;2022-07-23T11:34:47;10.93;;;6.13;;
46158;SDS011;31888;44.512;26.104;2022-07-23T11:36:52;14.93;;;6.97;;
46158;SDS011;31888;44.512;26.104;2022-07-23T11:38:57;13.23;;;6.10;;
46158;SDS011;31888;44.512;26.104;2022-07-23T11:41:04;12.80;;;5.80;;
46158;SDS011;31888;44.512;26.104;2022-07-23T11:43:10;16.10;;;6.18;;
46158;SDS011;31888;44.512;26.104;2022-07-23T11:45:16;12.73;;;6.32;;
46158;SDS011;31888;44.512;26.104;2022-07-23T11:47:21;12.10;;;6.28;;
46158;SDS011;31888;44.512;26.104;2022-07-23T11:49:28;10.70;;;6.10;;
46158;SDS011;31888;44.512;26.104;2022-07-23T11:51:33;11.65;;;6.70;;
46158;SDS011;31888;44.512;26.104;2022-07-23T11:53:38;10.63;;;6.13;;
46158;SDS011;31888;44.512;26.104;2022-07-23T11:55:42;10.80;;;6.38;;
46158;SDS011;31888;44.512;26.104;2022-07-23T11:57:46;17.42;;;6.78;;
46158;SDS011;31888;44.512;26.104;2022-07-23T11:59:53;12.43;;;6.40;;
46158;SDS011;31888;44.512;26.104;2022-07-23T12:02:02;13.38;;;5.95;;
46158;SDS011;31888;44.512;26.104;2022-07-23T12:04:11;12.77;;;6.63;;
46158;SDS011;31888;44.512;26.104;2022-07-23T12:06:15;11.05;;;6.05;;
46158;SDS011;31888;44.512;26.104;2022-07-23T12:08:20;9.18;;;5.75;;
46158;SDS011;31888;44.512;26.104;2022-07-23T12:10:26;11.93;;;6.13;;
46158;SDS011;31888;44.512;26.104;2022-07-23T12:12:37;22.77;;;7.35;;
46158;SDS011;31888;44.512;26.104;2022-07-23T12:14:47;12.48;;;6.13;;
46158;SDS011;31888;44.512;26.104;2022-07-23T12:19:23;8.15;;;5.35;;
46158;SDS011;31888;44.512;26.104;2022-07-23T12:21:29;14.65;;;6.38;;
46158;SDS011;31888;44.512;26.104;2022-07-23T12:23:33;16.00;;;6.90;;
46158;SDS011;31888;44.512;26.104;2022-07-23T12:25:42;12.38;;;6.30;;
46158;SDS011;31888;44.512;26.104;2022-07-23T12:27:57;10.60;;;6.53;;
46158;SDS011;31888;44.512;26.104;2022-07-23T12:30:15;13.48;;;7.03;;
46158;SDS011;31888;44.512;26.104;2022-07-23T12:32:23;14.38;;;6.95;;
46158;SDS011;31888;44.512;26.104;2022-07-23T12:34:28;12.55;;;6.43;;
46158;SDS011;31888;44.512;26.104;2022-07-23T12:36:38;10.93;;;6.28;;
46158;SDS011;31888;44.512;26.104;2022-07-23T12:38:46;10.45;;;6.03;;
46158;SDS011;31888;44.512;26.104;2022-07-23T12:40:53;14.48;;;6.68;;
46158;SDS011;31888;44.512;26.104;2022-07-23T12:42:59;14.35;;;7.15;;
46158;SDS011;31888;44.512;26.104;2022-07-23T12:45:08;11.48;;;6.60;;
46158;SDS011;31888;44.512;26.104;2022-07-23T12:47:14;12.18;;;6.57;;
46158;SDS011;31888;44.512;26.104;2022-07-23T12:49:26;11.43;;;6.28;;